sensor_id;sensor_type;location;lat;lon;timestamp;pressure;altitude;pressure_sealevel;temperature;humidity
73316;BME280;61545;53.726;-0.444;2022-09-09T00:03:01;1000.4;;;15.0;99.7
73316;BME280;61545;53.726;-0.444;2022-09-09T00:07:59;1000.5;;;14.9;99.6
73316;BME280;61545;53.726;-0.444;2022-09-09T00:13:02;1000.4;;;15.0;99.5
73316;BME280;61545;53.726;-0.444;2022-09-09T00:18:01;1000.4;;;15.0;99.3
73316;BME280;61545;53.726;-0.444;2022-09-09T00:23:01;1000.4;;;14.9;99.3
73316;BME280;61545;53.726;-0.444;2022-09-09T00:27:58;1000.5;;;14.8;99.3
73316;BME280;61545;53.726;-0.444;2022-09-09T00:33:00;1000.4;;;14.8;99.3
73316;BME280;61545;53.726;-0.444;2022-09-09T00:38:01;1000.4;;;14.7;99.0
73316;BME280;61545;53.726;-0.444;2022-09-09T00:43:08;1000.4;;;14.8;98.9
73316;BME280;61545;53.726;-0.444;2022-09-09T00:47:58;1000.4;;;14.7;98.8
73316;BME280;61545;53.726;-0.444;2022-09-09T00:53:05;1000.4;;;14.7;98.8
73316;BME280;61545;53.726;-0.444;2022-09-09T00:57:59;1000.3;;;14.7;98.8
73316;BME280;61545;53.726;-0.444;2022-09-09T01:03:06;1000.3;;;14.4;98.7
73316;BME280;61545;53.726;-0.444;2022-09-09T01:07:59;1000.3;;;14.4;99.0
73316;BME280;61545;53.726;-0.444;2022-09-09T01:12:58;1000.3;;;14.5;99.0
73316;BME280;61545;53.726;-0.444;2022-09-09T01:18:00;1000.3;;;14.5;99.2
73316;BME280;61545;53.726;-0.444;2022-09-09T01:23:06;1000.2;;;14.5;99.6
73316;BME280;61545;53.726;-0.444;2022-09-09T01:28:00;1000.2;;;14.4;99.8
73316;BME280;61545;53.726;-0.444;2022-09-09T01:32:58;1000.2;;;14.4;100.0
73316;BME280;61545;53.726;-0.444;2022-09-09T01:37:58;1000.2;;;14.5;100.0
73316;BME280;61545;53.726;-0.444;2022-09-09T01:42:58;1000.1;;;14.4;100.0
73316;BME280;61545;53.726;-0.444;2022-09-09T01:47:59;1000.1;;;14.4;100.0
73316;BME280;61545;53.726;-0.444;2022-09-09T01:52:59;1000.2;;;14.4;100.0
73316;BME280;61545;53.726;-0.444;2022-09-09T01:58:07;1000.2;;;14.4;100.0
73316;BME280;61545;53.726;-0.444;2022-09-09T02:03:00;1000.2;;;14.4;100.0
73316;BME280;61545;53.726;-0.444;2022-09-09T02:08:00;1000.3;;;14.3;100.0
73316;BME280;61545;53.726;-0.444;2022-09-09T02:13:01;1000.2;;;14.4;100.0
73316;BME280;61545;53.726;-0.444;2022-09-09T02:17:58;1000.2;;;14.4;100.0
73316;BME280;61545;53.726;-0.444;2022-09-09T02:22:59;1000.2;;;14.3;100.0
73316;BME280;61545;53.726;-0.444;2022-09-09T02:27:59;1000.3;;;14.3;100.0
73316;BME280;61545;53.726;-0.444;2022-09-09T02:32:58;1000.3;;;14.3;100.0
73316;BME280;61545;53.726;-0.444;2022-09-09T02:38:01;1000.3;;;14.3;100.0
73316;BME280;61545;53.726;-0.444;2022-09-09T02:42:58;1000.3;;;14.2;100.0
73316;BME280;61545;53.726;-0.444;2022-09-09T02:48:00;1000.2;;;14.2;100.0
73316;BME280;61545;53.726;-0.444;2022-09-09T02:53:04;1000.2;;;14.2;100.0
73316;BME280;61545;53.726;-0.444;2022-09-09T02:57:58;1000.2;;;14.1;100.0
73316;BME280;61545;53.726;-0.444;2022-09-09T03:02:59;1000.2;;;14.1;100.0
73316;BME280;61545;53.726;-0.444;2022-09-09T03:07:58;1000.2;;;14.1;100.0
73316;BME280;61545;53.726;-0.444;2022-09-09T03:12:58;1000.2;;;14.1;100.0
73316;BME280;61545;53.726;-0.444;2022-09-09T03:17:59;1000.2;;;14.1;100.0
73316;BME280;61545;53.726;-0.444;2022-09-09T03:22:59;1000.1;;;14.2;100.0
73316;BME280;61545;53.726;-0.444;2022-09-09T03:27:59;1000.0;;;14.1;100.0
73316;BME280;61545;53.726;-0.444;2022-09-09T03:32:59;1000.0;;;14.1;100.0
73316;BME280;61545;53.726;-0.444;2022-09-09T03:37:58;1000.0;;;14.2;100.0
73316;BME280;61545;53.726;-0.444;2022-09-09T03:42:59;1000.1;;;14.2;100.0
73316;BME280;61545;53.726;-0.444;2022-09-09T03:47:58;1000.1;;;14.2;100.0
73316;BME280;61545;53.726;-0.444;2022-09-09T03:52:59;1000.1;;;14.2;100.0
73316;BME280;61545;53.726;-0.444;2022-09-09T03:57:58;1000.1;;;14.2;100.0
73316;BME280;61545;53.726;-0.444;2022-09-09T04:02:58;1000.1;;;14.2;100.0
73316;BME280;61545;53.726;-0.444;2022-09-09T04:07:59;1000.2;;;14.1;100.0
73316;BME280;61545;53.726;-0.444;2022-09-09T04:12:59;1000.2;;;14.2;100.0
73316;BME280;61545;53.726;-0.444;2022-09-09T04:17:59;1000.3;;;14.3;100.0
73316;BME280;61545;53.726;-0.444;2022-09-09T04:22:58;1000.3;;;14.4;100.0
73316;BME280;61545;53.726;-0.444;2022-09-09T04:27:59;1000.3;;;14.3;100.0
73316;BME280;61545;53.726;-0.444;2022-09-09T04:32:59;1000.2;;;14.2;100.0
73316;BME280;61545;53.726;-0.444;2022-09-09T04:37:59;1000.2;;;14.2;100.0
73316;BME280;61545;53.726;-0.444;2022-09-09T04:42:59;1000.2;;;14.2;100.0
73316;BME280;61545;53.726;-0.444;2022-09-09T04:47:59;1000.2;;;14.2;100.0
73316;BME280;61545;53.726;-0.444;2022-09-09T04:53:00;1000.2;;;14.4;100.0
73316;BME280;61545;53.726;-0.444;2022-09-09T04:58:03;1000.2;;;14.4;100.0
73316;BME280;61545;53.726;-0.444;2022-09-09T05:03:02;1000.2;;;14.4;100.0
73316;BME280;61545;53.726;-0.444;2022-09-09T05:08:01;1000.3;;;14.4;100.0
73316;BME280;61545;53.726;-0.444;2022-09-09T05:12:59;1000.3;;;14.4;100.0
73316;BME280;61545;53.726;-0.444;2022-09-09T05:17:59;1000.4;;;14.4;100.0
73316;BME280;61545;53.726;-0.444;2022-09-09T05:22:59;1000.4;;;14.4;100.0
73316;BME280;61545;53.726;-0.444;2022-09-09T05:27:59;1000.4;;;14.5;100.0
73316;BME280;61545;53.726;-0.444;2022-09-09T05:32:59;1000.4;;;14.4;100.0
73316;BME280;61545;53.726;-0.444;2022-09-09T05:37:59;1000.4;;;14.3;100.0
73316;BME280;61545;53.726;-0.444;2022-09-09T05:43:00;1000.4;;;14.5;100.0
73316;BME280;61545;53.726;-0.444;2022-09-09T05:47:59;1000.4;;;14.5;100.0
73316;BME280;61545;53.726;-0.444;2022-09-09T05:52:59;1000.4;;;14.3;100.0
73316;BME280;61545;53.726;-0.444;2022-09-09T05:57:59;1000.5;;;14.2;100.0
73316;BME280;61545;53.726;-0.444;2022-09-09T06:02:59;1000.5;;;14.1;100.0
73316;BME280;61545;53.726;-0.444;2022-09-09T06:07:59;1000.5;;;14.3;100.0
73316;BME280;61545;53.726;-0.444;2022-09-09T06:12:59;1000.6;;;14.3;100.0
73316;BME280;61545;53.726;-0.444;2022-09-09T06:17:59;1000.7;;;14.3;100.0
73316;BME280;61545;53.726;-0.444;2022-09-09T06:22:59;1000.7;;;14.3;100.0
73316;BME280;61545;53.726;-0.444;2022-09-09T06:27:59;1000.7;;;14.2;100.0
73316;BME280;61545;53.726;-0.444;2022-09-09T06:32:59;1000.7;;;14.4;100.0
73316;BME280;61545;53.726;-0.444;2022-09-09T06:37:59;1000.7;;;14.4;100.0
73316;BME280;61545;53.726;-0.444;2022-09-09T06:42:59;1000.7;;;14.4;100.0
73316;BME280;61545;53.726;-0.444;2022-09-09T06:47:59;1000.8;;;14.5;100.0
73316;BME280;61545;53.726;-0.444;2022-09-09T06:52:59;1000.8;;;14.7;100.0
73316;BME280;61545;53.726;-0.444;2022-09-09T06:57:59;1000.8;;;14.5;100.0
73316;BME280;61545;53.726;-0.444;2022-09-09T07:02:59;1000.9;;;14.6;100.0
73316;BME280;61545;53.726;-0.444;2022-09-09T07:07:59;1001.0;;;14.5;100.0
73316;BME280;61545;53.726;-0.444;2022-09-09T07:12:59;1001.0;;;14.7;100.0
73316;BME280;61545;53.726;-0.444;2022-09-09T07:18:00;1001.1;;;14.8;100.0
73316;BME280;61545;53.726;-0.444;2022-09-09T07:22:59;1001.0;;;14.9;100.0
73316;BME280;61545;53.726;-0.444;2022-09-09T07:27:59;1001.1;;;15.0;100.0
73316;BME280;61545;53.726;-0.444;2022-09-09T07:32:59;1001.1;;;15.0;100.0
73316;BME280;61545;53.726;-0.444;2022-09-09T07:38:00;1001.1;;;15.2;100.0
73316;BME280;61545;53.726;-0.444;2022-09-09T07:42:59;1001.2;;;15.4;100.0
73316;BME280;61545;53.726;-0.444;2022-09-09T07:47:59;1001.2;;;15.6;100.0
73316;BME280;61545;53.726;-0.444;2022-09-09T07:52:59;1001.3;;;16.3;100.0
73316;BME280;61545;53.726;-0.444;2022-09-09T07:57:59;1001.3;;;17.0;100.0
73316;BME280;61545;53.726;-0.444;2022-09-09T08:02:59;1001.3;;;18.4;100.0
73316;BME280;61545;53.726;-0.444;2022-09-09T08:07:59;1001.3;;;18.5;100.0
73316;BME280;61545;53.726;-0.444;2022-09-09T08:12:59;1001.3;;;18.9;100.0
73316;BME280;61545;53.726;-0.444;2022-09-09T08:17:59;1001.3;;;18.7;100.0
73316;BME280;61545;53.726;-0.444;2022-09-09T08:22:59;1001.3;;;20.2;100.0
73316;BME280;61545;53.726;-0.444;2022-09-09T08:27:59;1001.3;;;21.0;100.0
73316;BME280;61545;53.726;-0.444;2022-09-09T08:32:59;1001.3;;;22.1;100.0
73316;BME280;61545;53.726;-0.444;2022-09-09T08:37:59;1001.4;;;20.1;100.0
73316;BME280;61545;53.726;-0.444;2022-09-09T08:42:59;1001.4;;;20.4;100.0
73316;BME280;61545;53.726;-0.444;2022-09-09T08:48:09;1001.4;;;20.6;100.0
73316;BME280;61545;53.726;-0.444;2022-09-09T08:53:01;1001.4;;;20.2;100.0
73316;BME280;61545;53.726;-0.444;2022-09-09T08:58:01;1001.5;;;20.6;100.0
73316;BME280;61545;53.726;-0.444;2022-09-09T09:03:01;1001.5;;;20.5;100.0
73316;BME280;61545;53.726;-0.444;2022-09-09T09:08:03;1001.5;;;20.6;99.8
73316;BME280;61545;53.726;-0.444;2022-09-09T09:12:59;1001.5;;;22.1;98.3
73316;BME280;61545;53.726;-0.444;2022-09-09T09:17:59;1001.5;;;22.4;95.4
73316;BME280;61545;53.726;-0.444;2022-09-09T09:22:59;1001.6;;;22.0;92.5
73316;BME280;61545;53.726;-0.444;2022-09-09T09:27:59;1001.6;;;21.5;90.1
73316;BME280;61545;53.726;-0.444;2022-09-09T09:33:00;1001.7;;;20.4;88.1
73316;BME280;61545;53.726;-0.444;2022-09-09T09:37:59;1001.7;;;20.2;87.5
73316;BME280;61545;53.726;-0.444;2022-09-09T09:42:59;1001.7;;;19.5;87.6
73316;BME280;61545;53.726;-0.444;2022-09-09T09:48:00;1001.8;;;18.9;88.1
73316;BME280;61545;53.726;-0.444;2022-09-09T09:53:00;1001.9;;;19.0;89.1
73316;BME280;61545;53.726;-0.444;2022-09-09T09:58:01;1001.9;;;19.0;89.9
73316;BME280;61545;53.726;-0.444;2022-09-09T10:02:59;1001.9;;;18.7;90.6
73316;BME280;61545;53.726;-0.444;2022-09-09T10:08:02;1001.9;;;18.7;91.1
73316;BME280;61545;53.726;-0.444;2022-09-09T10:13:00;1002.0;;;18.6;91.1
73316;BME280;61545;53.726;-0.444;2022-09-09T10:18:04;1002.0;;;18.6;91.3
73316;BME280;61545;53.726;-0.444;2022-09-09T10:23:08;1002.0;;;18.4;91.5
73316;BME280;61545;53.726;-0.444;2022-09-09T10:28:18;1002.0;;;18.5;91.4
73316;BME280;61545;53.726;-0.444;2022-09-09T10:33:02;1002.1;;;18.7;91.6
73316;BME280;61545;53.726;-0.444;2022-09-09T10:38:08;1002.1;;;18.9;91.1
73316;BME280;61545;53.726;-0.444;2022-09-09T10:43:04;1002.1;;;18.7;89.8
73316;BME280;61545;53.726;-0.444;2022-09-09T10:48:05;1002.2;;;18.4;89.3
73316;BME280;61545;53.726;-0.444;2022-09-09T10:53:01;1002.1;;;18.7;89.2
73316;BME280;61545;53.726;-0.444;2022-09-09T10:57:59;1002.1;;;18.5;88.9
73316;BME280;61545;53.726;-0.444;2022-09-09T11:03:00;1002.2;;;18.4;88.7
73316;BME280;61545;53.726;-0.444;2022-09-09T11:08:00;1002.2;;;18.4;88.5
73316;BME280;61545;53.726;-0.444;2022-09-09T11:13:01;1002.2;;;18.5;88.6
73316;BME280;61545;53.726;-0.444;2022-09-09T11:18:00;1002.2;;;18.9;88.6
73316;BME280;61545;53.726;-0.444;2022-09-09T11:23:00;1002.3;;;18.9;88.3
73316;BME280;61545;53.726;-0.444;2022-09-09T11:28:08;1002.2;;;18.5;87.3
73316;BME280;61545;53.726;-0.444;2022-09-09T11:33:09;1002.3;;;18.7;87.1
73316;BME280;61545;53.726;-0.444;2022-09-09T11:38:08;1002.4;;;18.5;87.1
73316;BME280;61545;53.726;-0.444;2022-09-09T11:43:01;1002.4;;;18.5;86.4
73316;BME280;61545;53.726;-0.444;2022-09-09T11:48:00;1002.4;;;18.2;85.8
73316;BME280;61545;53.726;-0.444;2022-09-09T11:53:05;1002.5;;;18.3;85.1
73316;BME280;61545;53.726;-0.444;2022-09-09T11:57:59;1002.5;;;18.1;84.3
73316;BME280;61545;53.726;-0.444;2022-09-09T12:02:59;1002.5;;;18.4;84.2
73316;BME280;61545;53.726;-0.444;2022-09-09T12:07:59;1002.6;;;18.5;84.1
73316;BME280;61545;53.726;-0.444;2022-09-09T12:13:08;1002.6;;;18.8;83.6
73316;BME280;61545;53.726;-0.444;2022-09-09T12:17:59;1002.6;;;18.7;82.9
73316;BME280;61545;53.726;-0.444;2022-09-09T12:23:10;1002.6;;;18.4;82.6
73316;BME280;61545;53.726;-0.444;2022-09-09T12:28:03;1002.6;;;18.5;83.2
73316;BME280;61545;53.726;-0.444;2022-09-09T12:33:01;1002.6;;;18.3;83.8
73316;BME280;61545;53.726;-0.444;2022-09-09T12:38:00;1002.7;;;18.2;84.2
73316;BME280;61545;53.726;-0.444;2022-09-09T12:42:59;1002.8;;;18.4;84.6
73316;BME280;61545;53.726;-0.444;2022-09-09T12:48:00;1002.8;;;18.7;84.8
73316;BME280;61545;53.726;-0.444;2022-09-09T12:53:00;1002.8;;;18.4;83.8
73316;BME280;61545;53.726;-0.444;2022-09-09T12:57:59;1002.9;;;18.3;83.2
73316;BME280;61545;53.726;-0.444;2022-09-09T13:03:00;1002.9;;;18.4;82.8
73316;BME280;61545;53.726;-0.444;2022-09-09T13:08:00;1003.0;;;18.4;82.5
73316;BME280;61545;53.726;-0.444;2022-09-09T13:12:59;1003.1;;;18.5;82.4
73316;BME280;61545;53.726;-0.444;2022-09-09T13:18:00;1003.1;;;18.2;82.7
73316;BME280;61545;53.726;-0.444;2022-09-09T13:22:59;1003.1;;;17.8;85.0
73316;BME280;61545;53.726;-0.444;2022-09-09T13:27:59;1003.1;;;17.5;87.1
73316;BME280;61545;53.726;-0.444;2022-09-09T13:33:00;1003.1;;;17.7;89.4
73316;BME280;61545;53.726;-0.444;2022-09-09T13:37:59;1003.2;;;17.5;90.9
73316;BME280;61545;53.726;-0.444;2022-09-09T13:42:59;1003.1;;;17.7;92.4
73316;BME280;61545;53.726;-0.444;2022-09-09T13:47:59;1003.1;;;17.5;93.6
73316;BME280;61545;53.726;-0.444;2022-09-09T13:52:59;1003.2;;;17.7;94.6
73316;BME280;61545;53.726;-0.444;2022-09-09T13:57:59;1003.2;;;17.8;95.5
73316;BME280;61545;53.726;-0.444;2022-09-09T14:02:59;1003.2;;;17.9;96.2
73316;BME280;61545;53.726;-0.444;2022-09-09T14:07:59;1003.2;;;18.1;96.9
73316;BME280;61545;53.726;-0.444;2022-09-09T14:12:59;1003.3;;;18.3;97.0
73316;BME280;61545;53.726;-0.444;2022-09-09T14:17:59;1003.7;;;17.7;96.9
73316;BME280;61545;53.726;-0.444;2022-09-09T14:22:59;1003.3;;;17.4;95.9
73316;BME280;61545;53.726;-0.444;2022-09-09T14:27:59;1003.3;;;17.4;96.0
73316;BME280;61545;53.726;-0.444;2022-09-09T14:32:59;1003.4;;;17.2;96.5
73316;BME280;61545;53.726;-0.444;2022-09-09T14:37:59;1003.3;;;17.2;97.3
73316;BME280;61545;53.726;-0.444;2022-09-09T14:42:59;1003.2;;;17.5;98.0
73316;BME280;61545;53.726;-0.444;2022-09-09T14:47:59;1003.2;;;17.9;98.6
73316;BME280;61545;53.726;-0.444;2022-09-09T14:52:59;1003.2;;;17.8;98.8
73316;BME280;61545;53.726;-0.444;2022-09-09T14:57:59;1003.2;;;17.9;99.2
73316;BME280;61545;53.726;-0.444;2022-09-09T15:02:59;1003.2;;;18.6;99.2
73316;BME280;61545;53.726;-0.444;2022-09-09T15:07:59;1003.3;;;18.9;98.2
73316;BME280;61545;53.726;-0.444;2022-09-09T15:12:59;1003.4;;;18.8;97.2
73316;BME280;61545;53.726;-0.444;2022-09-09T15:17:59;1003.4;;;18.5;96.7
73316;BME280;61545;53.726;-0.444;2022-09-09T15:22:59;1003.4;;;18.2;96.8
73316;BME280;61545;53.726;-0.444;2022-09-09T15:27:59;1003.4;;;18.2;97.2
73316;BME280;61545;53.726;-0.444;2022-09-09T15:32:59;1003.4;;;18.5;97.3
73316;BME280;61545;53.726;-0.444;2022-09-09T15:38:01;1003.5;;;18.5;97.0
73316;BME280;61545;53.726;-0.444;2022-09-09T15:42:59;1003.6;;;18.4;97.3
73316;BME280;61545;53.726;-0.444;2022-09-09T15:47:59;1003.6;;;18.0;97.1
73316;BME280;61545;53.726;-0.444;2022-09-09T15:52:59;1003.7;;;18.1;96.3
73316;BME280;61545;53.726;-0.444;2022-09-09T15:57:59;1003.7;;;18.4;95.8
73316;BME280;61545;53.726;-0.444;2022-09-09T16:02:59;1003.8;;;18.4;94.8
73316;BME280;61545;53.726;-0.444;2022-09-09T16:07:59;1003.9;;;17.8;94.0
73316;BME280;61545;53.726;-0.444;2022-09-09T16:12:59;1003.9;;;17.6;93.0
73316;BME280;61545;53.726;-0.444;2022-09-09T16:17:59;1003.9;;;17.7;93.5
73316;BME280;61545;53.726;-0.444;2022-09-09T16:22:59;1003.9;;;17.6;93.3
73316;BME280;61545;53.726;-0.444;2022-09-09T16:27:59;1004.1;;;17.6;93.5
73316;BME280;61545;53.726;-0.444;2022-09-09T16:32:59;1004.1;;;17.6;94.3
73316;BME280;61545;53.726;-0.444;2022-09-09T16:37:59;1004.1;;;17.5;95.2
73316;BME280;61545;53.726;-0.444;2022-09-09T16:42:59;1004.2;;;17.5;96.0
73316;BME280;61545;53.726;-0.444;2022-09-09T16:47:59;1004.3;;;17.5;96.5
73316;BME280;61545;53.726;-0.444;2022-09-09T16:52:59;1004.3;;;17.5;96.5
73316;BME280;61545;53.726;-0.444;2022-09-09T16:57:59;1004.3;;;17.5;96.3
73316;BME280;61545;53.726;-0.444;2022-09-09T17:02:59;1004.4;;;17.5;96.6
73316;BME280;61545;53.726;-0.444;2022-09-09T17:07:59;1004.5;;;17.4;96.8
73316;BME280;61545;53.726;-0.444;2022-09-09T17:12:59;1004.6;;;17.2;96.7
73316;BME280;61545;53.726;-0.444;2022-09-09T17:17:59;1004.6;;;17.2;96.4
73316;BME280;61545;53.726;-0.444;2022-09-09T17:22:59;1004.6;;;17.2;96.6
73316;BME280;61545;53.726;-0.444;2022-09-09T17:27:59;1004.7;;;17.0;96.5
73316;BME280;61545;53.726;-0.444;2022-09-09T17:32:59;1004.8;;;17.0;96.2
73316;BME280;61545;53.726;-0.444;2022-09-09T17:37:59;1004.8;;;17.0;96.0
73316;BME280;61545;53.726;-0.444;2022-09-09T17:42:59;1004.8;;;16.9;96.2
73316;BME280;61545;53.726;-0.444;2022-09-09T17:47:59;1004.9;;;16.9;96.0
73316;BME280;61545;53.726;-0.444;2022-09-09T17:52:59;1005.0;;;16.8;96.3
73316;BME280;61545;53.726;-0.444;2022-09-09T17:57:59;1005.0;;;16.7;96.6
73316;BME280;61545;53.726;-0.444;2022-09-09T18:02:59;1005.1;;;16.7;97.0
73316;BME280;61545;53.726;-0.444;2022-09-09T18:07:59;1005.2;;;16.5;97.1
73316;BME280;61545;53.726;-0.444;2022-09-09T18:12:59;1005.3;;;16.5;97.0
73316;BME280;61545;53.726;-0.444;2022-09-09T18:17:59;1005.3;;;16.5;96.9
73316;BME280;61545;53.726;-0.444;2022-09-09T18:22:59;1005.4;;;16.5;96.7
73316;BME280;61545;53.726;-0.444;2022-09-09T18:27:59;1005.4;;;16.5;96.9
73316;BME280;61545;53.726;-0.444;2022-09-09T18:32:59;1005.5;;;16.4;97.0
73316;BME280;61545;53.726;-0.444;2022-09-09T18:37:59;1005.6;;;16.2;97.1
73316;BME280;61545;53.726;-0.444;2022-09-09T18:42:59;1005.7;;;16.3;97.3
73316;BME280;61545;53.726;-0.444;2022-09-09T18:47:59;1005.7;;;16.2;97.4
73316;BME280;61545;53.726;-0.444;2022-09-09T18:52:59;1005.7;;;16.0;97.6
73316;BME280;61545;53.726;-0.444;2022-09-09T18:57:59;1005.8;;;16.0;97.6
73316;BME280;61545;53.726;-0.444;2022-09-09T19:02:59;1005.9;;;16.2;97.7
73316;BME280;61545;53.726;-0.444;2022-09-09T19:07:59;1005.9;;;16.0;97.9
73316;BME280;61545;53.726;-0.444;2022-09-09T19:12:59;1005.9;;;15.8;98.0
73316;BME280;61545;53.726;-0.444;2022-09-09T19:17:59;1006.0;;;16.0;98.1
73316;BME280;61545;53.726;-0.444;2022-09-09T19:22:59;1006.0;;;16.0;98.1
73316;BME280;61545;53.726;-0.444;2022-09-09T19:27:59;1006.1;;;15.9;98.3
73316;BME280;61545;53.726;-0.444;2022-09-09T19:32:59;1006.2;;;15.9;98.7
73316;BME280;61545;53.726;-0.444;2022-09-09T19:37:59;1006.3;;;15.9;99.1
73316;BME280;61545;53.726;-0.444;2022-09-09T19:42:59;1006.4;;;16.0;99.3
73316;BME280;61545;53.726;-0.444;2022-09-09T19:47:59;1006.4;;;15.9;99.3
73316;BME280;61545;53.726;-0.444;2022-09-09T19:52:59;1006.5;;;15.9;99.7
73316;BME280;61545;53.726;-0.444;2022-09-09T19:57:59;1006.5;;;15.9;100.0
73316;BME280;61545;53.726;-0.444;2022-09-09T20:02:59;1006.5;;;15.7;100.0
73316;BME280;61545;53.726;-0.444;2022-09-09T20:07:59;1006.6;;;15.7;100.0
73316;BME280;61545;53.726;-0.444;2022-09-09T20:12:59;1006.7;;;15.7;100.0
73316;BME280;61545;53.726;-0.444;2022-09-09T20:17:59;1006.7;;;15.7;100.0
73316;BME280;61545;53.726;-0.444;2022-09-09T20:22:59;1006.7;;;15.6;100.0
73316;BME280;61545;53.726;-0.444;2022-09-09T20:27:59;1006.8;;;15.7;100.0
73316;BME280;61545;53.726;-0.444;2022-09-09T20:32:59;1006.8;;;15.6;100.0
73316;BME280;61545;53.726;-0.444;2022-09-09T20:37:59;1006.9;;;15.5;100.0
73316;BME280;61545;53.726;-0.444;2022-09-09T20:42:59;1006.9;;;15.5;100.0
73316;BME280;61545;53.726;-0.444;2022-09-09T20:47:59;1007.0;;;15.5;100.0
73316;BME280;61545;53.726;-0.444;2022-09-09T20:52:59;1007.0;;;15.6;100.0
73316;BME280;61545;53.726;-0.444;2022-09-09T20:57:59;1007.0;;;15.7;100.0
73316;BME280;61545;53.726;-0.444;2022-09-09T21:02:59;1007.0;;;15.7;100.0
73316;BME280;61545;53.726;-0.444;2022-09-09T21:07:59;1007.1;;;15.5;100.0
73316;BME280;61545;53.726;-0.444;2022-09-09T21:12:59;1007.1;;;15.6;100.0
73316;BME280;61545;53.726;-0.444;2022-09-09T21:17:59;1007.2;;;15.5;100.0
73316;BME280;61545;53.726;-0.444;2022-09-09T21:22:59;1007.2;;;15.5;100.0
73316;BME280;61545;53.726;-0.444;2022-09-09T21:27:59;1007.2;;;15.5;100.0
73316;BME280;61545;53.726;-0.444;2022-09-09T21:32:59;1007.2;;;15.3;100.0
73316;BME280;61545;53.726;-0.444;2022-09-09T21:37:59;1007.2;;;15.4;100.0
73316;BME280;61545;53.726;-0.444;2022-09-09T21:42:59;1007.3;;;15.4;100.0
73316;BME280;61545;53.726;-0.444;2022-09-09T21:47:59;1007.4;;;15.4;100.0
73316;BME280;61545;53.726;-0.444;2022-09-09T21:52:59;1007.4;;;15.4;100.0
73316;BME280;61545;53.726;-0.444;2022-09-09T21:57:59;1007.4;;;15.5;100.0
73316;BME280;61545;53.726;-0.444;2022-09-09T22:02:59;1007.4;;;15.4;100.0
73316;BME280;61545;53.726;-0.444;2022-09-09T22:07:59;1007.5;;;15.3;100.0
73316;BME280;61545;53.726;-0.444;2022-09-09T22:12:59;1007.6;;;15.4;100.0
73316;BME280;61545;53.726;-0.444;2022-09-09T22:17:59;1007.6;;;15.5;100.0
73316;BME280;61545;53.726;-0.444;2022-09-09T22:22:59;1007.6;;;15.2;100.0
73316;BME280;61545;53.726;-0.444;2022-09-09T22:27:59;1007.6;;;15.3;100.0
73316;BME280;61545;53.726;-0.444;2022-09-09T22:32:59;1007.6;;;15.2;100.0
73316;BME280;61545;53.726;-0.444;2022-09-09T22:37:59;1007.7;;;15.3;100.0
73316;BME280;61545;53.726;-0.444;2022-09-09T22:42:59;1007.7;;;15.1;100.0
73316;BME280;61545;53.726;-0.444;2022-09-09T22:47:59;1007.8;;;15.3;100.0
73316;BME280;61545;53.726;-0.444;2022-09-09T22:52:59;1007.8;;;15.2;100.0
73316;BME280;61545;53.726;-0.444;2022-09-09T22:57:59;1007.8;;;15.2;100.0
73316;BME280;61545;53.726;-0.444;2022-09-09T23:02:59;1007.8;;;15.2;100.0
73316;BME280;61545;53.726;-0.444;2022-09-09T23:07:59;1007.8;;;15.2;100.0
73316;BME280;61545;53.726;-0.444;2022-09-09T23:12:59;1007.8;;;15.2;100.0
73316;BME280;61545;53.726;-0.444;2022-09-09T23:17:59;1007.9;;;15.2;100.0
73316;BME280;61545;53.726;-0.444;2022-09-09T23:22:59;1008.0;;;15.2;100.0
73316;BME280;61545;53.726;-0.444;2022-09-09T23:27:59;1008.0;;;15.2;100.0
73316;BME280;61545;53.726;-0.444;2022-09-09T23:32:59;1008.1;;;15.2;100.0
73316;BME280;61545;53.726;-0.444;2022-09-09T23:37:59;1008.0;;;15.2;100.0
73316;BME280;61545;53.726;-0.444;2022-09-09T23:42:59;1008.1;;;15.1;100.0
73316;BME280;61545;53.726;-0.444;2022-09-09T23:47:59;1008.1;;;15.0;100.0
73316;BME280;61545;53.726;-0.444;2022-09-09T23:52:59;1008.0;;;14.9;100.0
73316;BME280;61545;53.726;-0.444;2022-09-09T23:57:59;1008.1;;;15.0;100.0
